Reservoir, Mississippi
Current Conditions -  °F | °C
As of 2:54 AM on Monday 24 Nov 2014 (Local Time) from KJAN Reporting Station
Clear Clear  
Wind Chill: 62°   Ceiling: Unl
Heat Index: 62°   Visibility: 10mi
Dew Point: 59°   Wind: 10mph
Humidity: 90%   Direction: 210°SSW
Pressure: 29.69"   Gusts: NA
Location:  32.2729°N, 89.9857°W
Report Text: KJAN 240854Z AUTO 21009KT 10SM CLR 17/15 A2969 RMK AO2 SLP051 T01670150 53015
Loading
Personal Weather Stations






























Interactive Weather Map New forecast layout! Learn more

10-Day Weather Forecast

Advertisements
Track Severe Weather on mobile